Saint-Jérôme, Québec

7:15 PM EST on January 30, 2015 (GMT -0500)
SAINT-JEROME MIRABEL | Change Station
CLOSE
Current Station
Personal Weather Station
Location: Saint-Colomban, QC
Elevation: 515 ft
Nearby Weather Stations

Elev 515 ft 45.77 °N, 74.09 °W | Updated 57 seconds ago

Mostly Cloudy
Mostly Cloudy
8.5 °F
Feels Like -1 °F
N
5.0
Wind Variable Wind from NNW
Gusts 12.0 mph

Tomorrow is forecast to be nearly the same temperature as today.

Today
High -- | Low -- °F
--% Chance of Precip.
Yesterday
High -- | Low -- °F
Precip. -- in
7:20 AM 4:59 PM
Waxing Gibbous, 86% visible
Pressure 30.12 in
Visibility 25.0 miles
Clouds Few 2000 ft
Few 3500 ft
Mostly Cloudy 5000 ft
Mostly Cloudy 10000 ft
Mostly Cloudy 25000 ft
Windchill -1 °F
Dew Point 1 °F
Humidity 70%
Rainfall 0.09 in
Snow Depth Not available.
UV 0 out of 12
Pollen Not available.
Air Quality Not available.
Flu Activity Not available.
METAR CYMX 310000Z 34016G22KT 25SM FEW020 FEW035 BKN050 BKN100 BKN250 M12/M20 A3009 RMK SC1SC1SC4AC1CI1 SC TR SLP197

More Conditions Fewer Conditions

Pressure 30.12 in
Visibility 25.0 miles
Clouds Few 2000 ft
Few 3500 ft
Mostly Cloudy 5000 ft
Mostly Cloudy 10000 ft
Mostly Cloudy 25000 ft
Windchill -1 °F
Dew Point 1 °F
Humidity 70%
Rainfall 0.09 in
Snow Depth Not available.
UV 0 out of 12
Pollen Not available.
Air Quality Not available.
Flu Activity Not available.
METAR CYMX 310000Z 34016G22KT 25SM FEW020 FEW035 BKN050 BKN100 BKN250 M12/M20 A3009 RMK SC1SC1SC4AC1CI1 SC TR SLP197

More Conditions Fewer Conditions

10-Day Weather Forecast

Almanac

Astronomy

Jan. 30, 2015 Rise Set
Actual Time
Civil Twilight
Nautical Twilight
Astronomical Twilight
Moon
Length of Visible Light
Length of Day
Tomorrow will be .
, % of the Moon is Illuminated

Today's Extremes

Country Highs Country Lows

Community

WunderPhotos

Upload Photos

1,791,939 photos uploaded!

WunderBlogs® & News

Nearby

Air Quality

  Air Quality AQ Index Pollutant
Not available.

Snow Depth

Station Depth Elevation

Earthquake Activity

City Distance Mag. Time & Date
Minimum magnitude displayed is 2.5.

Coastal Water Temperatures

Place Temperature

Nearby Weather Stations